sensor_id;sensor_type;location;lat;lon;timestamp;temperature;humidity
10846;DHT22;5476;51.540;7.186;2022-08-19T00:01:18;21.40;99.90
10846;DHT22;5476;51.540;7.186;2022-08-19T00:03:50;22.60;99.90
10846;DHT22;5476;51.540;7.186;2022-08-19T00:06:18;22.60;99.90
10846;DHT22;5476;51.540;7.186;2022-08-19T00:08:50;22.60;99.90
10846;DHT22;5476;51.540;7.186;2022-08-19T00:11:19;20.90;99.90
10846;DHT22;5476;51.540;7.186;2022-08-19T00:13:48;22.60;99.90
10846;DHT22;5476;51.540;7.186;2022-08-19T00:16:27;22.50;99.90
10846;DHT22;5476;51.540;7.186;2022-08-19T00:19:09;22.50;99.90
10846;DHT22;5476;51.540;7.186;2022-08-19T00:24:11;22.40;99.90
10846;DHT22;5476;51.540;7.186;2022-08-19T00:26:48;22.40;99.90
10846;DHT22;5476;51.540;7.186;2022-08-19T00:29:18;22.30;99.90
10846;DHT22;5476;51.540;7.186;2022-08-19T00:31:51;22.30;99.90
10846;DHT22;5476;51.540;7.186;2022-08-19T00:34:23;22.40;99.90
10846;DHT22;5476;51.540;7.186;2022-08-19T00:37:02;20.50;99.90
10846;DHT22;5476;51.540;7.186;2022-08-19T00:39:41;22.30;99.90
10846;DHT22;5476;51.540;7.186;2022-08-19T00:42:11;22.20;99.90
10846;DHT22;5476;51.540;7.186;2022-08-19T00:44:46;22.20;99.90
10846;DHT22;5476;51.540;7.186;2022-08-19T00:47:14;22.20;99.90
10846;DHT22;5476;51.540;7.186;2022-08-19T00:49:45;22.20;99.90
10846;DHT22;5476;51.540;7.186;2022-08-19T00:52:21;22.20;99.90
10846;DHT22;5476;51.540;7.186;2022-08-19T00:54:51;22.20;99.90
10846;DHT22;5476;51.540;7.186;2022-08-19T00:57:30;22.10;99.90
10846;DHT22;5476;51.540;7.186;2022-08-19T01:00:17;22.10;99.90
10846;DHT22;5476;51.540;7.186;2022-08-19T01:02:46;17.80;99.90
10846;DHT22;5476;51.540;7.186;2022-08-19T01:05:18;22.00;99.90
10846;DHT22;5476;51.540;7.186;2022-08-19T01:07:48;22.00;99.90
10846;DHT22;5476;51.540;7.186;2022-08-19T01:10:21;21.90;99.90
10846;DHT22;5476;51.540;7.186;2022-08-19T01:12:53;21.90;99.90
10846;DHT22;5476;51.540;7.186;2022-08-19T01:15:26;21.90;99.90
10846;DHT22;5476;51.540;7.186;2022-08-19T01:17:57;21.90;99.90
10846;DHT22;5476;51.540;7.186;2022-08-19T01:22:57;21.90;99.90
10846;DHT22;5476;51.540;7.186;2022-08-19T01:25:32;21.80;99.90
10846;DHT22;5476;51.540;7.186;2022-08-19T01:28:01;19.40;99.90
10846;DHT22;5476;51.540;7.186;2022-08-19T01:30:32;21.90;99.90
10846;DHT22;5476;51.540;7.186;2022-08-19T01:33:04;22.10;99.90
10846;DHT22;5476;51.540;7.186;2022-08-19T01:35:36;21.70;99.90
10846;DHT22;5476;51.540;7.186;2022-08-19T01:38:27;22.10;99.90
10846;DHT22;5476;51.540;7.186;2022-08-19T01:43:34;21.60;99.90
10846;DHT22;5476;51.540;7.186;2022-08-19T01:46:07;21.60;99.90
10846;DHT22;5476;51.540;7.186;2022-08-19T01:48:59;21.50;99.90
10846;DHT22;5476;51.540;7.186;2022-08-19T01:51:35;21.50;99.90
10846;DHT22;5476;51.540;7.186;2022-08-19T01:54:14;23.00;99.90
10846;DHT22;5476;51.540;7.186;2022-08-19T01:56:47;21.40;99.90
10846;DHT22;5476;51.540;7.186;2022-08-19T01:59:23;21.50;99.90
10846;DHT22;5476;51.540;7.186;2022-08-19T02:02:05;21.40;99.90
10846;DHT22;5476;51.540;7.186;2022-08-19T02:04:39;21.40;99.90
10846;DHT22;5476;51.540;7.186;2022-08-19T02:07:24;21.40;99.90
10846;DHT22;5476;51.540;7.186;2022-08-19T02:10:06;21.30;99.90
10846;DHT22;5476;51.540;7.186;2022-08-19T02:15:12;21.30;99.90
10846;DHT22;5476;51.540;7.186;2022-08-19T02:17:48;21.30;99.90
10846;DHT22;5476;51.540;7.186;2022-08-19T02:22:47;21.00;99.90
10846;DHT22;5476;51.540;7.186;2022-08-19T02:25:24;21.30;99.90
10846;DHT22;5476;51.540;7.186;2022-08-19T02:27:53;18.60;99.90
10846;DHT22;5476;51.540;7.186;2022-08-19T02:30:27;21.20;99.90
10846;DHT22;5476;51.540;7.186;2022-08-19T02:33:02;21.20;99.90
10846;DHT22;5476;51.540;7.186;2022-08-19T02:36:02;21.10;99.90
10846;DHT22;5476;51.540;7.186;2022-08-19T02:38:31;21.00;99.90
10846;DHT22;5476;51.540;7.186;2022-08-19T02:41:05;22.40;99.90
10846;DHT22;5476;51.540;7.186;2022-08-19T02:43:39;20.40;99.90
10846;DHT22;5476;51.540;7.186;2022-08-19T02:46:12;21.00;99.90
10846;DHT22;5476;51.540;7.186;2022-08-19T02:48:44;19.50;99.90
10846;DHT22;5476;51.540;7.186;2022-08-19T02:51:17;21.00;99.90
10846;DHT22;5476;51.540;7.186;2022-08-19T02:53:50;21.00;99.90
10846;DHT22;5476;51.540;7.186;2022-08-19T02:56:20;21.10;99.90
10846;DHT22;5476;51.540;7.186;2022-08-19T02:58:49;20.60;99.90
10846;DHT22;5476;51.540;7.186;2022-08-19T03:01:31;21.00;99.90
10846;DHT22;5476;51.540;7.186;2022-08-19T03:04:11;20.90;99.90
10846;DHT22;5476;51.540;7.186;2022-08-19T03:06:49;22.50;99.90
10846;DHT22;5476;51.540;7.186;2022-08-19T03:09:22;23.60;99.90
10846;DHT22;5476;51.540;7.186;2022-08-19T03:12:08;20.80;99.90
10846;DHT22;5476;51.540;7.186;2022-08-19T03:14:42;20.80;99.90
10846;DHT22;5476;51.540;7.186;2022-08-19T03:22:22;20.70;99.90
10846;DHT22;5476;51.540;7.186;2022-08-19T03:24:56;20.70;99.90
10846;DHT22;5476;51.540;7.186;2022-08-19T03:27:32;20.60;99.90
10846;DHT22;5476;51.540;7.186;2022-08-19T03:32:29;23.30;99.90
10846;DHT22;5476;51.540;7.186;2022-08-19T03:37:45;20.70;99.90
10846;DHT22;5476;51.540;7.186;2022-08-19T03:40:22;20.80;99.90
10846;DHT22;5476;51.540;7.186;2022-08-19T03:42:57;20.70;99.90
10846;DHT22;5476;51.540;7.186;2022-08-19T03:45:34;24.50;99.90
10846;DHT22;5476;51.540;7.186;2022-08-19T03:48:08;20.70;99.90
10846;DHT22;5476;51.540;7.186;2022-08-19T03:50:46;20.70;99.90
10846;DHT22;5476;51.540;7.186;2022-08-19T03:53:19;22.40;99.90
10846;DHT22;5476;51.540;7.186;2022-08-19T03:56:16;20.50;99.90
10846;DHT22;5476;51.540;7.186;2022-08-19T03:58:47;22.60;99.90
10846;DHT22;5476;51.540;7.186;2022-08-19T04:01:24;22.00;99.90
10846;DHT22;5476;51.540;7.186;2022-08-19T04:04:04;20.50;99.90
10846;DHT22;5476;51.540;7.186;2022-08-19T04:06:38;24.30;99.90
10846;DHT22;5476;51.540;7.186;2022-08-19T04:09:14;16.40;99.90
10846;DHT22;5476;51.540;7.186;2022-08-19T04:12:03;23.20;99.90
10846;DHT22;5476;51.540;7.186;2022-08-19T04:14:43;20.40;99.90
10846;DHT22;5476;51.540;7.186;2022-08-19T04:17:18;20.60;99.90
10846;DHT22;5476;51.540;7.186;2022-08-19T04:19:52;20.40;99.90
10846;DHT22;5476;51.540;7.186;2022-08-19T04:22:31;20.30;99.90
10846;DHT22;5476;51.540;7.186;2022-08-19T04:30:05;20.30;99.90
10846;DHT22;5476;51.540;7.186;2022-08-19T04:32:37;18.00;99.90
10846;DHT22;5476;51.540;7.186;2022-08-19T04:35:19;20.30;99.90
10846;DHT22;5476;51.540;7.186;2022-08-19T04:38:12;20.30;99.90
10846;DHT22;5476;51.540;7.186;2022-08-19T04:40:50;17.10;99.90
10846;DHT22;5476;51.540;7.186;2022-08-19T04:43:52;20.80;99.90
10846;DHT22;5476;51.540;7.186;2022-08-19T04:46:31;20.40;99.90
10846;DHT22;5476;51.540;7.186;2022-08-19T04:49:06;20.40;99.90
10846;DHT22;5476;51.540;7.186;2022-08-19T04:52:02;20.40;99.90
10846;DHT22;5476;51.540;7.186;2022-08-19T04:54:34;22.70;99.90
10846;DHT22;5476;51.540;7.186;2022-08-19T04:59:32;20.30;99.90
10846;DHT22;5476;51.540;7.186;2022-08-19T05:02:03;20.20;99.90
10846;DHT22;5476;51.540;7.186;2022-08-19T05:07:03;20.20;99.90
10846;DHT22;5476;51.540;7.186;2022-08-19T05:09:32;20.60;99.90
10846;DHT22;5476;51.540;7.186;2022-08-19T05:12:09;20.40;99.90
10846;DHT22;5476;51.540;7.186;2022-08-19T05:17:12;20.50;99.90
10846;DHT22;5476;51.540;7.186;2022-08-19T05:22:28;20.30;99.90
10846;DHT22;5476;51.540;7.186;2022-08-19T05:25:08;20.30;99.90
10846;DHT22;5476;51.540;7.186;2022-08-19T05:30:04;20.30;99.90
10846;DHT22;5476;51.540;7.186;2022-08-19T05:32:33;20.30;99.90
10846;DHT22;5476;51.540;7.186;2022-08-19T05:35:01;20.30;99.90
10846;DHT22;5476;51.540;7.186;2022-08-19T05:37:29;20.40;99.90
10846;DHT22;5476;51.540;7.186;2022-08-19T05:39:57;20.40;99.90
10846;DHT22;5476;51.540;7.186;2022-08-19T05:42:24;20.50;99.90
10846;DHT22;5476;51.540;7.186;2022-08-19T05:47:22;20.70;99.90
10846;DHT22;5476;51.540;7.186;2022-08-19T05:49:51;20.80;99.90
10846;DHT22;5476;51.540;7.186;2022-08-19T05:52:19;20.70;99.90
10846;DHT22;5476;51.540;7.186;2022-08-19T05:54:47;20.70;99.90
10846;DHT22;5476;51.540;7.186;2022-08-19T05:57:17;20.80;99.90
10846;DHT22;5476;51.540;7.186;2022-08-19T05:59:48;20.90;99.90
10846;DHT22;5476;51.540;7.186;2022-08-19T06:02:22;20.90;99.90
10846;DHT22;5476;51.540;7.186;2022-08-19T06:04:57;21.00;99.90
10846;DHT22;5476;51.540;7.186;2022-08-19T06:07:28;20.00;99.90
10846;DHT22;5476;51.540;7.186;2022-08-19T06:12:29;21.30;99.90
10846;DHT22;5476;51.540;7.186;2022-08-19T06:15:07;21.20;99.90
10846;DHT22;5476;51.540;7.186;2022-08-19T06:20:07;21.20;99.90
10846;DHT22;5476;51.540;7.186;2022-08-19T06:22:40;21.20;99.90
10846;DHT22;5476;51.540;7.186;2022-08-19T06:25:13;21.30;99.90
10846;DHT22;5476;51.540;7.186;2022-08-19T06:27:42;21.30;99.90
10846;DHT22;5476;51.540;7.186;2022-08-19T06:30:11;21.30;99.90
10846;DHT22;5476;51.540;7.186;2022-08-19T06:32:39;21.30;99.90
10846;DHT22;5476;51.540;7.186;2022-08-19T06:35:08;21.30;99.90
10846;DHT22;5476;51.540;7.186;2022-08-19T06:37:36;21.40;99.90
10846;DHT22;5476;51.540;7.186;2022-08-19T06:40:06;21.50;99.90
10846;DHT22;5476;51.540;7.186;2022-08-19T06:42:34;21.50;99.90
10846;DHT22;5476;51.540;7.186;2022-08-19T06:45:06;21.40;99.90
10846;DHT22;5476;51.540;7.186;2022-08-19T06:47:42;21.60;99.90
10846;DHT22;5476;51.540;7.186;2022-08-19T06:58:01;21.90;99.90
10846;DHT22;5476;51.540;7.186;2022-08-19T07:00:50;22.00;99.90
10846;DHT22;5476;51.540;7.186;2022-08-19T07:03:18;22.00;99.90
10846;DHT22;5476;51.540;7.186;2022-08-19T07:06:09;22.10;99.90
10846;DHT22;5476;51.540;7.186;2022-08-19T07:08:41;22.10;99.90
10846;DHT22;5476;51.540;7.186;2022-08-19T07:11:14;22.10;99.90
10846;DHT22;5476;51.540;7.186;2022-08-19T07:13:45;22.10;99.90
10846;DHT22;5476;51.540;7.186;2022-08-19T07:16:27;22.10;99.90
10846;DHT22;5476;51.540;7.186;2022-08-19T07:18:55;22.20;99.90
10846;DHT22;5476;51.540;7.186;2022-08-19T07:24:44;22.10;99.90
10846;DHT22;5476;51.540;7.186;2022-08-19T07:27:30;22.20;99.90
10846;DHT22;5476;51.540;7.186;2022-08-19T07:33:26;22.20;99.90
10846;DHT22;5476;51.540;7.186;2022-08-19T07:39:16;22.10;99.90
10846;DHT22;5476;51.540;7.186;2022-08-19T07:41:58;22.20;99.90
10846;DHT22;5476;51.540;7.186;2022-08-19T07:51:28;22.40;99.90
10846;DHT22;5476;51.540;7.186;2022-08-19T07:54:15;22.60;99.90
10846;DHT22;5476;51.540;7.186;2022-08-19T07:57:07;22.60;99.90
10846;DHT22;5476;51.540;7.186;2022-08-19T08:00:07;22.70;99.90
10846;DHT22;5476;51.540;7.186;2022-08-19T08:02:41;22.80;99.90
10846;DHT22;5476;51.540;7.186;2022-08-19T08:05:13;22.90;99.90
10846;DHT22;5476;51.540;7.186;2022-08-19T08:07:58;18.80;99.90
10846;DHT22;5476;51.540;7.186;2022-08-19T08:11:07;23.10;99.90
10846;DHT22;5476;51.540;7.186;2022-08-19T08:13:45;23.20;99.90
10846;DHT22;5476;51.540;7.186;2022-08-19T08:16:28;23.20;99.90
10846;DHT22;5476;51.540;7.186;2022-08-19T08:19:17;22.00;99.90
10846;DHT22;5476;51.540;7.186;2022-08-19T08:24:23;23.40;99.90
10846;DHT22;5476;51.540;7.186;2022-08-19T08:27:11;23.50;99.90
10846;DHT22;5476;51.540;7.186;2022-08-19T08:29:45;23.60;99.90
10846;DHT22;5476;51.540;7.186;2022-08-19T08:32:26;23.60;99.90
10846;DHT22;5476;51.540;7.186;2022-08-19T08:35:05;23.60;99.90
10846;DHT22;5476;51.540;7.186;2022-08-19T08:38:03;23.80;99.90
10846;DHT22;5476;51.540;7.186;2022-08-19T08:45:00;24.20;99.90
10846;DHT22;5476;51.540;7.186;2022-08-19T08:47:41;24.30;99.90
10846;DHT22;5476;51.540;7.186;2022-08-19T08:50:43;24.50;99.90
10846;DHT22;5476;51.540;7.186;2022-08-19T08:53:28;24.70;99.90
10846;DHT22;5476;51.540;7.186;2022-08-19T08:58:27;25.00;99.90
10846;DHT22;5476;51.540;7.186;2022-08-19T09:01:01;25.10;99.90
10846;DHT22;5476;51.540;7.186;2022-08-19T09:03:29;25.40;99.90
10846;DHT22;5476;51.540;7.186;2022-08-19T09:06:00;25.50;99.90
10846;DHT22;5476;51.540;7.186;2022-08-19T09:08:45;25.70;99.90
10846;DHT22;5476;51.540;7.186;2022-08-19T09:11:21;26.00;99.90
10846;DHT22;5476;51.540;7.186;2022-08-19T09:14:04;26.30;99.90
10846;DHT22;5476;51.540;7.186;2022-08-19T09:16:41;26.30;99.90
10846;DHT22;5476;51.540;7.186;2022-08-19T09:19:30;26.20;99.90
10846;DHT22;5476;51.540;7.186;2022-08-19T09:22:14;26.20;99.90
10846;DHT22;5476;51.540;7.186;2022-08-19T09:24:41;25.90;99.90
10846;DHT22;5476;51.540;7.186;2022-08-19T09:29:37;26.70;99.90
10846;DHT22;5476;51.540;7.186;2022-08-19T09:32:06;26.70;99.90
10846;DHT22;5476;51.540;7.186;2022-08-19T09:34:34;26.90;99.90
10846;DHT22;5476;51.540;7.186;2022-08-19T09:37:05;26.70;99.90
10846;DHT22;5476;51.540;7.186;2022-08-19T09:42:00;27.00;99.90
10846;DHT22;5476;51.540;7.186;2022-08-19T09:46:57;27.00;99.90
10846;DHT22;5476;51.540;7.186;2022-08-19T09:49:28;25.00;99.90
10846;DHT22;5476;51.540;7.186;2022-08-19T09:54:24;26.80;99.90
10846;DHT22;5476;51.540;7.186;2022-08-19T09:56:51;26.60;99.90
10846;DHT22;5476;51.540;7.186;2022-08-19T10:01:49;26.60;99.90
10846;DHT22;5476;51.540;7.186;2022-08-19T10:06:49;26.70;99.90
10846;DHT22;5476;51.540;7.186;2022-08-19T10:09:18;26.70;99.90
10846;DHT22;5476;51.540;7.186;2022-08-19T10:11:46;26.90;99.90
10846;DHT22;5476;51.540;7.186;2022-08-19T10:24:15;28.20;99.90
10846;DHT22;5476;51.540;7.186;2022-08-19T10:31:42;28.70;99.90
10846;DHT22;5476;51.540;7.186;2022-08-19T10:36:37;28.70;99.90
10846;DHT22;5476;51.540;7.186;2022-08-19T10:39:07;28.80;99.90
10846;DHT22;5476;51.540;7.186;2022-08-19T10:41:40;28.80;99.60
10846;DHT22;5476;51.540;7.186;2022-08-19T10:44:11;28.80;99.70
10846;DHT22;5476;51.540;7.186;2022-08-19T10:46:41;28.90;99.90
10846;DHT22;5476;51.540;7.186;2022-08-19T10:49:11;29.30;99.20
10846;DHT22;5476;51.540;7.186;2022-08-19T10:51:39;29.40;98.30
10846;DHT22;5476;51.540;7.186;2022-08-19T10:54:25;29.30;98.10
10846;DHT22;5476;51.540;7.186;2022-08-19T10:57:14;29.10;97.50
10846;DHT22;5476;51.540;7.186;2022-08-19T11:04:40;28.90;98.40
10846;DHT22;5476;51.540;7.186;2022-08-19T11:07:08;28.80;98.40
10846;DHT22;5476;51.540;7.186;2022-08-19T11:09:40;28.70;98.30
10846;DHT22;5476;51.540;7.186;2022-08-19T11:12:09;28.70;98.70
10846;DHT22;5476;51.540;7.186;2022-08-19T11:14:43;29.00;98.50
10846;DHT22;5476;51.540;7.186;2022-08-19T11:22:08;29.60;95.70
10846;DHT22;5476;51.540;7.186;2022-08-19T11:27:07;29.70;96.00
10846;DHT22;5476;51.540;7.186;2022-08-19T11:29:39;29.90;95.30
10846;DHT22;5476;51.540;7.186;2022-08-19T11:32:08;30.10;94.00
10846;DHT22;5476;51.540;7.186;2022-08-19T11:34:40;30.40;92.20
10846;DHT22;5476;51.540;7.186;2022-08-19T11:37:17;30.40;91.40
10846;DHT22;5476;51.540;7.186;2022-08-19T11:42:17;31.30;87.60
10846;DHT22;5476;51.540;7.186;2022-08-19T11:45:05;31.80;85.10
10846;DHT22;5476;51.540;7.186;2022-08-19T11:47:33;31.40;84.80
10846;DHT22;5476;51.540;7.186;2022-08-19T11:50:00;31.30;85.60
10846;DHT22;5476;51.540;7.186;2022-08-19T11:57:24;30.10;87.40
10846;DHT22;5476;51.540;7.186;2022-08-19T11:59:52;30.20;90.00
10846;DHT22;5476;51.540;7.186;2022-08-19T12:02:21;30.10;89.80
10846;DHT22;5476;51.540;7.186;2022-08-19T12:04:52;30.50;89.90
10846;DHT22;5476;51.540;7.186;2022-08-19T12:07:19;31.10;86.90
10846;DHT22;5476;51.540;7.186;2022-08-19T12:09:47;31.40;85.20
10846;DHT22;5476;51.540;7.186;2022-08-19T12:12:15;31.50;83.10
10846;DHT22;5476;51.540;7.186;2022-08-19T12:14:42;31.60;82.10
10846;DHT22;5476;51.540;7.186;2022-08-19T12:17:11;31.80;79.70
10846;DHT22;5476;51.540;7.186;2022-08-19T12:19:41;32.20;77.90
10846;DHT22;5476;51.540;7.186;2022-08-19T12:22:11;32.20;77.80
10846;DHT22;5476;51.540;7.186;2022-08-19T12:24:39;32.50;74.60
10846;DHT22;5476;51.540;7.186;2022-08-19T12:27:07;32.60;73.80
10846;DHT22;5476;51.540;7.186;2022-08-19T12:29:37;32.60;72.90
10846;DHT22;5476;51.540;7.186;2022-08-19T12:32:05;32.70;70.00
10846;DHT22;5476;51.540;7.186;2022-08-19T12:34:33;32.70;72.00
10846;DHT22;5476;51.540;7.186;2022-08-19T12:37:06;32.10;71.40
10846;DHT22;5476;51.540;7.186;2022-08-19T12:39:35;32.10;72.00
10846;DHT22;5476;51.540;7.186;2022-08-19T12:42:04;31.90;71.50
10846;DHT22;5476;51.540;7.186;2022-08-19T12:44:33;31.70;72.10
10846;DHT22;5476;51.540;7.186;2022-08-19T12:47:01;31.80;72.10
10846;DHT22;5476;51.540;7.186;2022-08-19T12:49:31;31.80;70.30
10846;DHT22;5476;51.540;7.186;2022-08-19T12:52:00;32.00;68.80
10846;DHT22;5476;51.540;7.186;2022-08-19T12:54:34;32.00;69.40
10846;DHT22;5476;51.540;7.186;2022-08-19T12:57:07;31.90;70.70
10846;DHT22;5476;51.540;7.186;2022-08-19T12:59:36;32.00;71.10
10846;DHT22;5476;51.540;7.186;2022-08-19T13:02:07;31.80;71.10
10846;DHT22;5476;51.540;7.186;2022-08-19T13:04:35;31.70;72.00
10846;DHT22;5476;51.540;7.186;2022-08-19T13:07:06;31.70;71.00
10846;DHT22;5476;51.540;7.186;2022-08-19T13:09:36;31.40;70.80
10846;DHT22;5476;51.540;7.186;2022-08-19T13:12:04;31.40;71.90
10846;DHT22;5476;51.540;7.186;2022-08-19T13:14:34;31.40;71.30
10846;DHT22;5476;51.540;7.186;2022-08-19T13:17:06;31.30;71.00
10846;DHT22;5476;51.540;7.186;2022-08-19T13:19:42;31.20;70.10
10846;DHT22;5476;51.540;7.186;2022-08-19T13:22:12;31.30;70.40
10846;DHT22;5476;51.540;7.186;2022-08-19T13:24:42;31.30;70.80
10846;DHT22;5476;51.540;7.186;2022-08-19T13:27:12;31.00;69.00
10846;DHT22;5476;51.540;7.186;2022-08-19T13:29:43;30.90;70.10
10846;DHT22;5476;51.540;7.186;2022-08-19T13:32:29;31.00;69.80
10846;DHT22;5476;51.540;7.186;2022-08-19T13:35:16;31.10;69.60
10846;DHT22;5476;51.540;7.186;2022-08-19T13:37:45;31.20;69.40
10846;DHT22;5476;51.540;7.186;2022-08-19T13:40:16;31.10;68.80
10846;DHT22;5476;51.540;7.186;2022-08-19T13:42:46;30.90;69.10
10846;DHT22;5476;51.540;7.186;2022-08-19T13:45:14;31.30;69.40
10846;DHT22;5476;51.540;7.186;2022-08-19T13:47:45;31.10;69.20
10846;DHT22;5476;51.540;7.186;2022-08-19T13:50:18;31.10;69.70
10846;DHT22;5476;51.540;7.186;2022-08-19T13:52:47;30.90;69.40
10846;DHT22;5476;51.540;7.186;2022-08-19T13:55:16;30.90;70.10
10846;DHT22;5476;51.540;7.186;2022-08-19T13:57:45;30.90;69.80
10846;DHT22;5476;51.540;7.186;2022-08-19T14:00:15;31.00;69.90
10846;DHT22;5476;51.540;7.186;2022-08-19T14:02:44;30.90;68.20
10846;DHT22;5476;51.540;7.186;2022-08-19T14:05:26;31.00;68.30
10846;DHT22;5476;51.540;7.186;2022-08-19T14:10:23;30.50;68.70
10846;DHT22;5476;51.540;7.186;2022-08-19T14:12:55;30.10;68.80
10846;DHT22;5476;51.540;7.186;2022-08-19T14:15:27;30.20;70.20
10846;DHT22;5476;51.540;7.186;2022-08-19T14:17:55;30.30;69.30
10846;DHT22;5476;51.540;7.186;2022-08-19T14:48:41;30.10;69.80
10846;DHT22;5476;51.540;7.186;2022-08-19T16:09:22;29.60;74.50
10846;DHT22;5476;51.540;7.186;2022-08-19T17:38:50;28.60;77.00
10846;DHT22;5476;51.540;7.186;2022-08-19T18:06:05;28.50;81.40
10846;DHT22;5476;51.540;7.186;2022-08-19T18:26:53;27.50;86.50
10846;DHT22;5476;51.540;7.186;2022-08-19T18:36:49;27.20;90.30
10846;DHT22;5476;51.540;7.186;2022-08-19T19:07:52;25.90;99.90
10846;DHT22;5476;51.540;7.186;2022-08-19T20:10:08;25.50;99.90
10846;DHT22;5476;51.540;7.186;2022-08-19T20:22:37;25.40;99.90
10846;DHT22;5476;51.540;7.186;2022-08-19T21:04:48;25.20;99.90
10846;DHT22;5476;51.540;7.186;2022-08-19T22:45:09;24.00;99.90
10846;DHT22;5476;51.540;7.186;2022-08-19T22:50:09;23.80;99.90
10846;DHT22;5476;51.540;7.186;2022-08-19T23:20:39;23.20;99.90
10846;DHT22;5476;51.540;7.186;2022-08-19T23:35:52;23.00;99.90
10846;DHT22;5476;51.540;7.186;2022-08-19T23:40:50;22.90;99.90
10846;DHT22;5476;51.540;7.186;2022-08-19T23:48:15;22.80;99.90
10846;DHT22;5476;51.540;7.186;2022-08-19T23:50:44;22.80;99.90
10846;DHT22;5476;51.540;7.186;2022-08-19T23:55:43;22.70;99.90
10846;DHT22;5476;51.540;7.186;2022-08-19T23:58:14;22.70;99.90
